You are not logged in, Click here to log in
ICAO: WMSA Country: 馬來西亞雪蘭莪州莎亞南西北部,舊名梳邦國際機場
Latitude: 3.13058 Longitude: 101.549
Total Arrivals: 1 Total Departures: 1
Latest Arrival: ZV629 (RCTP-WMSA)Meng Sheng. Chan Latest Departure: FY3503 (WMSA-WSSS)Meng Sheng. Chan
Scenery:
METAR : WMSA 210700Z 32004KT 260V060 8000 -RA FEW005 FEW017CB SCT140 BKN270 28/25 Q1010

蘇丹阿都阿兹沙機場SZB